Time;durP1;ratioP1;P1;durP2;ratioP2;P2;SDS_P1;SDS_P2;PMS_P1;PMS_P2;Temp;Humidity;BMP_temperature;BMP_pressure;BME280_temperature;BME280_humidity;BME280_pressure;Samples;Min_cycle;Max_cycle;Signal;HPM_P1;HPM_P2
2023/01/24 00:01:38;;;;;;;41.43;17.07;;;;;;;2.41;75.96;101061.72;4996908;28;20030;-76
2023/01/24 00:04:03;;;;;;;45.70;17.87;;;;;;;2.41;75.61;101064.31;4996798;28;20031;-76
2023/01/24 00:06:29;;;;;;;43.43;17.80;;;;;;;2.44;75.21;101064.44;4997006;28;20265;-76
2023/01/24 00:08:54;;;;;;;45.03;17.43;;;;;;;2.47;76.14;101055.91;4996986;28;20153;-76
2023/01/24 00:11:19;;;;;;;47.00;16.80;;;;;;;2.47;75.83;101051.59;4996742;28;20022;-76
2023/01/24 00:13:45;;;;;;;39.63;16.90;;;;;;;2.48;75.81;101058.56;4996711;28;20018;-76
2023/01/24 00:16:19;;;;;;;39.67;16.58;;;;;;;2.49;75.30;101055.13;5011995;28;20027;-76
2023/01/24 00:18:45;;;;;;;43.30;17.50;;;;;;;2.52;75.92;101063.06;4997010;28;20030;-76
2023/01/24 00:21:20;;;;;;;43.38;17.50;;;;;;;2.53;75.63;101064.84;4996402;28;20029;-76
2023/01/24 00:23:48;;;;;;;43.25;16.27;;;;;;;2.55;75.21;101070.09;4996587;28;20120;-76
2023/01/24 00:26:15;;;;;;;42.63;16.67;;;;;;;2.53;75.22;101064.84;4996849;28;20027;-76
2023/01/24 00:28:41;;;;;;;40.05;16.33;;;;;;;2.54;75.80;101064.03;4999210;28;20026;-76
2023/01/24 00:31:06;;;;;;;40.20;16.13;;;;;;;2.54;75.29;101058.84;5000400;28;20030;-76
2023/01/24 00:33:32;;;;;;;40.90;16.73;;;;;;;2.52;75.26;101070.84;4998900;28;20018;-76
2023/01/24 00:35:59;;;;;;;41.15;17.05;;;;;;;2.54;75.52;101066.63;5000394;28;20057;-76
2023/01/24 00:38:24;;;;;;;42.25;16.70;;;;;;;2.56;75.01;101056.28;4999920;28;20034;-77
2023/01/24 00:40:50;;;;;;;40.55;15.23;;;;;;;2.55;75.02;101070.09;5000527;28;20432;-76
2023/01/24 00:43:16;;;;;;;43.90;16.53;;;;;;;2.56;75.57;101066.69;4998925;28;20027;-76
2023/01/24 00:45:44;;;;;;;40.92;17.40;;;;;;;2.59;75.23;101072.00;5005382;28;20041;-76
2023/01/24 00:48:10;;;;;;;40.28;16.38;;;;;;;2.64;75.07;101067.00;5002551;28;20038;-76
2023/01/24 00:50:35;;;;;;;41.03;15.47;;;;;;;2.64;75.70;101074.81;5000424;28;20030;-77
2023/01/24 00:53:01;;;;;;;38.93;16.80;;;;;;;2.65;75.47;101073.97;5015182;28;20262;-76
2023/01/24 00:55:27;;;;;;;43.08;16.90;;;;;;;2.66;75.77;101067.94;4999810;28;20030;-76
2023/01/24 00:57:53;;;;;;;41.23;17.23;;;;;;;2.66;74.79;101078.34;5000022;28;20045;-77
2023/01/24 01:00:18;;;;;;;39.58;15.68;;;;;;;2.65;75.57;101079.19;5000204;28;20026;-76
2023/01/24 01:02:44;;;;;;;39.33;16.60;;;;;;;2.65;75.79;101077.47;4999818;28;20483;-77
2023/01/24 01:05:09;;;;;;;44.17;16.43;;;;;;;2.64;75.44;101078.28;4995216;28;20042;-76
2023/01/24 01:07:35;;;;;;;41.45;16.45;;;;;;;2.64;75.40;101080.00;4997152;28;20029;-77
2023/01/24 01:10:01;;;;;;;40.40;16.27;;;;;;;2.64;75.04;101067.00;5000117;28;20364;-77
2023/01/24 01:12:26;;;;;;;39.88;16.35;;;;;;;2.63;75.88;101068.69;4999693;28;20459;-77
2023/01/24 01:14:52;;;;;;;40.27;16.03;;;;;;;2.63;75.25;101071.31;4999567;28;20414;-77
2023/01/24 01:17:18;;;;;;;38.00;16.05;;;;;;;2.63;75.52;101078.22;4999630;28;20399;-77
2023/01/24 01:19:43;;;;;;;39.97;17.03;;;;;;;2.63;75.13;101075.63;4999477;28;20065;-77
2023/01/24 01:22:09;;;;;;;42.40;16.27;;;;;;;2.60;75.27;101075.50;4999266;28;20270;-77
2023/01/24 01:24:35;;;;;;;43.60;15.87;;;;;;;2.58;74.96;101078.94;4995136;28;20018;-77
2023/01/24 01:27:00;;;;;;;38.03;15.85;;;;;;;2.59;75.42;101085.00;4999633;28;20101;-77
2023/01/24 01:29:26;;;;;;;39.10;15.87;;;;;;;2.58;75.64;101097.13;4999103;28;20033;-76
2023/01/24 01:31:51;;;;;;;38.73;16.87;;;;;;;2.58;75.58;101089.34;4999063;28;20050;-77
2023/01/24 01:34:17;;;;;;;37.47;15.27;;;;;;;2.60;75.79;101083.31;4999461;28;20025;-77
2023/01/24 01:36:42;;;;;;;42.07;15.97;;;;;;;2.60;75.22;101088.50;4999147;28;20327;-77
2023/01/24 01:39:08;;;;;;;41.47;16.40;;;;;;;2.61;75.31;101100.69;4998349;28;20076;-76
2023/01/24 01:41:33;;;;;;;39.47;15.88;;;;;;;2.58;75.64;101107.53;4999505;28;20446;-76
2023/01/24 01:44:40;;;;;;;37.63;16.27;;;;;;;2.59;75.70;101103.19;4999166;28;20038;-77
2023/01/24 01:47:17;;;;;;;38.45;16.50;;;;;;;2.61;74.71;101093.75;5006460;28;20022;-76
2023/01/24 01:49:50;;;;;;;39.78;16.40;;;;;;;2.60;75.50;101094.56;4999013;28;20105;-76
2023/01/24 01:52:17;;;;;;;37.90;15.67;;;;;;;2.61;75.48;101092.88;4999141;28;20026;-77
2023/01/24 01:54:45;;;;;;;41.55;16.52;;;;;;;2.61;75.54;101085.94;4998969;28;20087;-76
2023/01/24 01:57:18;;;;;;;38.80;15.40;;;;;;;2.61;75.26;101085.09;4998733;28;20031;-76
2023/01/24 02:00:18;;;;;;;40.13;16.23;;;;;;;2.57;75.14;101090.16;4998696;28;20026;-77
2023/01/24 02:02:48;;;;;;;37.25;14.88;;;;;;;2.61;75.44;101090.28;5001630;28;20034;-76
2023/01/24 02:05:18;;;;;;;37.37;15.20;;;;;;;2.61;75.74;101095.47;4998884;28;20030;-76
2023/01/24 02:07:50;;;;;;;34.80;15.00;;;;;;;2.60;76.04;101091.97;4998535;28;20046;-76
2023/01/24 02:10:19;;;;;;;39.05;15.57;;;;;;;2.60;76.08;101093.72;4998900;28;20027;-76
2023/01/24 02:12:47;;;;;;;44.10;15.73;;;;;;;2.58;75.69;101084.13;5013691;28;20086;-76
2023/01/24 02:18:04;;;;;;;38.30;15.37;;;;;;;2.55;75.64;101094.41;4998810;28;20164;-76
2023/01/24 02:20:39;;;;;;;36.95;15.32;;;;;;;2.56;75.23;101105.69;4998411;28;20038;-76
2023/01/24 02:23:29;;;;;;;39.65;16.33;;;;;;;2.55;75.23;101107.41;4998237;28;20030;-76
2023/01/24 02:26:09;;;;;;;35.42;15.50;;;;;;;2.55;74.91;101094.41;4995318;28;20061;-76
2023/01/24 02:28:35;;;;;;;41.92;15.70;;;;;;;2.58;75.93;101091.94;4998070;28;20034;-76
2023/01/24 02:31:02;;;;;;;38.47;15.63;;;;;;;2.61;75.89;101090.28;4998170;28;20467;-76
2023/01/24 02:33:28;;;;;;;36.78;15.32;;;;;;;2.61;75.40;101083.34;4998155;28;20030;-76
2023/01/24 02:36:13;;;;;;;35.17;14.02;;;;;;;2.62;75.60;101081.66;4998116;28;20037;-76
2023/01/24 02:38:40;;;;;;;37.40;15.15;;;;;;;2.65;75.63;101084.38;4998120;28;20111;-76
2023/01/24 02:41:07;;;;;;;36.33;14.88;;;;;;;2.65;75.56;101081.78;4998216;28;20040;-77
2023/01/24 02:43:54;;;;;;;37.27;15.07;;;;;;;2.60;74.37;101075.50;4996653;28;20026;-76
2023/01/24 02:46:20;;;;;;;36.05;14.70;;;;;;;2.63;75.01;101075.63;5005708;28;20030;-77
2023/01/24 02:48:45;;;;;;;37.47;14.87;;;;;;;2.63;75.65;101078.22;4997932;28;20384;-77
2023/01/24 02:53:55;;;;;;;39.07;15.47;;;;;;;2.60;75.51;101083.31;4998265;28;20561;-76
2023/01/24 02:59:04;;;;;;;36.77;15.27;;;;;;;2.62;76.06;101092.06;4997704;28;20041;-77
2023/01/24 03:01:31;;;;;;;34.72;14.15;;;;;;;2.64;75.74;101095.59;4997914;28;20026;-77
2023/01/24 03:03:57;;;;;;;37.40;14.97;;;;;;;2.64;76.08;101098.22;4997746;28;20381;-76
2023/01/24 03:06:23;;;;;;;36.97;15.00;;;;;;;2.64;76.03;101093.88;4997714;28;20022;-77
2023/01/24 03:08:48;;;;;;;38.00;15.43;;;;;;;2.66;75.42;101088.75;4997800;28;20054;-76
2023/01/24 03:11:14;;;;;;;35.05;14.20;;;;;;;2.65;75.27;101100.88;4997759;28;20179;-76
2023/01/24 03:35:34;;;;;;;38.05;15.10;;;;;;;2.65;75.50;101092.19;4984860;28;20049;-76
2023/01/24 03:40:44;;;;;;;35.17;14.30;;;;;;;2.66;75.53;101099.16;4997288;28;20572;-77
2023/01/24 03:43:10;;;;;;;38.97;15.77;;;;;;;2.66;75.46;101101.75;4997195;28;20038;-76
2023/01/24 03:45:37;;;;;;;36.38;14.77;;;;;;;2.64;75.57;101100.81;5001617;28;20073;-77
2023/01/24 03:48:09;;;;;;;37.77;14.03;;;;;;;2.63;75.75;101101.63;5000718;28;20049;-76
2023/01/24 03:53:24;;;;;;;36.42;15.20;;;;;;;2.63;75.58;101099.03;4997571;28;20037;-77
2023/01/24 03:55:58;;;;;;;35.20;14.10;;;;;;;2.61;75.04;101085.94;4984390;28;20476;-76
2023/01/24 03:58:24;;;;;;;38.53;14.98;;;;;;;2.62;76.08;101086.84;4996743;28;20033;-76
2023/01/24 04:00:52;;;;;;;41.60;15.60;;;;;;;2.63;75.66;101088.63;4997210;28;20022;-76
2023/01/24 04:03:17;;;;;;;40.28;15.57;;;;;;;2.65;75.15;101082.69;4999621;28;20093;-76
2023/01/24 04:05:42;;;;;;;37.83;15.03;;;;;;;2.67;75.59;101085.31;5001154;28;20062;-76
2023/01/24 04:08:08;;;;;;;41.00;15.00;;;;;;;2.67;75.97;101090.53;5000841;28;20050;-77
2023/01/24 04:10:34;;;;;;;37.60;15.63;;;;;;;2.69;75.37;101094.97;5001270;28;20073;-76
2023/01/24 04:13:00;;;;;;;39.75;15.63;;;;;;;2.68;75.70;101093.22;5001073;28;20048;-76
2023/01/24 04:15:28;;;;;;;38.07;14.93;;;;;;;2.68;75.48;101081.91;5000783;28;20105;-76
2023/01/24 04:17:58;;;;;;;37.22;14.18;;;;;;;2.70;75.30;101080.25;5016341;28;20031;-76
2023/01/24 04:20:26;;;;;;;37.47;14.55;;;;;;;2.70;75.94;101075.94;5016192;28;20034;-76
2023/01/24 04:22:51;;;;;;;36.17;14.80;;;;;;;2.71;75.97;101076.81;5000657;28;20022;-76
2023/01/24 04:25:17;;;;;;;37.45;14.15;;;;;;;2.72;75.46;101078.59;4995974;28;20031;-76
2023/01/24 04:27:43;;;;;;;39.20;14.95;;;;;;;2.72;76.02;101078.59;4999615;28;20029;-76
2023/01/24 04:30:10;;;;;;;38.70;15.37;;;;;;;2.73;75.36;101080.38;5000530;28;20029;-76
2023/01/24 04:32:36;;;;;;;34.22;14.35;;;;;;;2.72;75.32;101076.00;5000469;28;20038;-76
2023/01/24 04:35:03;;;;;;;40.33;15.63;;;;;;;2.73;75.77;101080.38;5000467;28;20030;-76
2023/01/24 04:37:29;;;;;;;37.97;15.75;;;;;;;2.72;75.27;101083.78;4999097;28;20105;-76
2023/01/24 04:39:54;;;;;;;33.85;14.82;;;;;;;2.72;75.99;101078.59;4999139;28;20510;-76
2023/01/24 04:42:20;;;;;;;37.83;15.17;;;;;;;2.72;75.36;101079.50;5000500;28;20445;-76
2023/01/24 04:44:45;;;;;;;39.03;15.07;;;;;;;2.73;75.58;101075.16;5000240;28;20029;-76
2023/01/24 04:47:11;;;;;;;38.28;14.93;;;;;;;2.71;75.61;101075.13;5008416;28;20026;-76
2023/01/24 04:49:36;;;;;;;37.90;15.07;;;;;;;2.72;75.93;101078.59;4998904;28;20378;-76
2023/01/24 04:52:02;;;;;;;39.00;15.10;;;;;;;2.72;75.72;101084.69;5000370;28;20034;-76
2023/01/24 04:54:27;;;;;;;39.30;15.25;;;;;;;2.73;75.19;101085.56;5000247;28;20030;-76
2023/01/24 04:56:53;;;;;;;41.13;15.27;;;;;;;2.72;75.39;101084.69;5000297;28;20056;-77
2023/01/24 04:59:18;;;;;;;39.07;14.27;;;;;;;2.73;75.81;101096.88;4998618;28;20026;-76
2023/01/24 05:01:43;;;;;;;39.47;15.10;;;;;;;2.73;75.62;101086.47;5000483;28;20474;-76
2023/01/24 05:04:09;;;;;;;39.63;15.55;;;;;;;2.75;75.23;101088.25;4999952;28;20140;-76
2023/01/24 05:06:34;;;;;;;37.20;14.60;;;;;;;2.75;76.00;101098.66;5000510;28;20034;-76
2023/01/24 05:09:00;;;;;;;42.57;15.63;;;;;;;2.74;75.60;101108.16;5000007;28;20073;-76
2023/01/24 05:11:26;;;;;;;40.88;14.90;;;;;;;2.74;74.95;101115.97;5000216;28;20368;-77
2023/01/24 05:13:52;;;;;;;37.93;15.73;;;;;;;2.75;74.96;101114.25;4999969;28;20037;-76
2023/01/24 05:16:17;;;;;;;42.85;15.68;;;;;;;2.76;76.15;101116.91;4999884;28;20027;-76
2023/01/24 05:18:43;;;;;;;42.67;16.73;;;;;;;2.75;75.12;101115.13;4999944;28;20045;-76
2023/01/24 05:21:15;;;;;;;38.65;14.90;;;;;;;2.76;75.18;101111.72;4998743;28;20030;-77
2023/01/24 05:23:41;;;;;;;41.53;15.43;;;;;;;2.75;75.65;101109.94;4996740;28;20030;-77
2023/01/24 05:26:07;;;;;;;38.57;15.00;;;;;;;2.73;75.28;101107.28;4998103;28;20494;-77
2023/01/24 05:28:33;;;;;;;37.95;14.40;;;;;;;2.75;75.76;101112.53;4998282;28;20057;-77
2023/01/24 05:31:00;;;;;;;36.50;15.77;;;;;;;2.76;75.86;101122.09;4999781;28;20431;-76
2023/01/24 05:33:25;;;;;;;42.72;14.80;;;;;;;2.77;75.59;101133.41;4999428;28;20061;-76
2023/01/24 05:36:02;;;;;;;39.13;14.77;;;;;;;2.76;75.39;101126.44;4999741;28;20430;-76
2023/01/24 05:38:27;;;;;;;39.40;14.93;;;;;;;2.77;75.25;101142.09;4999771;28;20030;-77
2023/01/24 05:40:53;;;;;;;41.00;15.60;;;;;;;2.78;75.45;101136.09;4999728;28;20039;-77
2023/01/24 05:43:18;;;;;;;38.72;16.02;;;;;;;2.78;75.29;101143.91;4999045;28;20027;-76
2023/01/24 05:45:44;;;;;;;43.97;16.63;;;;;;;2.79;75.35;101148.28;5005169;28;20018;-77
2023/01/24 05:48:10;;;;;;;38.80;15.53;;;;;;;2.80;75.02;101155.25;5002152;28;20027;-77
2023/01/24 05:50:36;;;;;;;40.35;15.85;;;;;;;2.79;74.98;101143.06;4999642;28;20030;-77
2023/01/24 05:53:02;;;;;;;40.50;15.48;;;;;;;2.80;75.48;101151.75;4998289;28;20030;-76
2023/01/24 05:55:28;;;;;;;42.45;17.38;;;;;;;2.80;75.64;101149.16;4999402;28;20027;-77
2023/01/24 05:57:53;;;;;;;40.97;17.07;;;;;;;2.80;75.42;101155.25;4999029;28;20410;-77
2023/01/24 06:00:19;;;;;;;43.97;16.23;;;;;;;2.81;75.30;101156.13;4998914;28;20026;-77
2023/01/24 06:02:44;;;;;;;40.20;17.38;;;;;;;2.80;75.35;101162.16;4999377;28;20022;-76
2023/01/24 06:05:10;;;;;;;39.63;16.53;;;;;;;2.80;75.08;101159.56;4999391;28;20061;-76
2023/01/24 06:07:35;;;;;;;41.90;15.23;;;;;;;2.78;75.69;101156.91;4999001;28;20023;-76
2023/01/24 06:10:01;;;;;;;42.30;15.33;;;;;;;2.77;75.41;101160.31;4999020;28;20022;-77
2023/01/24 06:12:26;;;;;;;42.08;16.90;;;;;;;2.76;74.93;101153.31;4999163;28;20084;-76
2023/01/24 06:14:52;;;;;;;46.47;17.20;;;;;;;2.76;75.08;101155.06;4999076;28;20041;-76
2023/01/24 06:17:17;;;;;;;38.90;15.13;;;;;;;2.76;75.08;101158.53;4998484;28;20529;-76
2023/01/24 06:19:43;;;;;;;40.87;15.60;;;;;;;2.75;75.41;101161.06;4998979;28;20112;-76
2023/01/24 06:22:28;;;;;;;39.90;15.05;;;;;;;2.73;74.93;101161.00;4998956;28;20116;-77
2023/01/24 06:24:53;;;;;;;39.73;15.07;;;;;;;2.74;75.41;101154.97;4994230;28;20042;-76
2023/01/24 06:27:19;;;;;;;40.50;14.95;;;;;;;2.73;74.98;101159.31;4998508;28;20102;-77
2023/01/24 06:29:45;;;;;;;45.13;16.23;;;;;;;2.75;75.93;101166.28;4998314;28;20041;-77
2023/01/24 06:32:10;;;;;;;40.33;16.13;;;;;;;2.75;75.10;101166.28;4998605;28;20033;-77
2023/01/24 06:35:07;;;;;;;43.77;16.13;;;;;;;2.72;74.90;101161.81;4998700;28;20066;-77
2023/01/24 06:37:46;;;;;;;41.17;16.17;;;;;;;2.72;75.03;101169.63;4998097;28;20026;-77
2023/01/24 06:40:14;;;;;;;42.97;17.70;;;;;;;2.73;75.05;101166.19;4994333;28;20399;-77
2023/01/24 06:42:40;;;;;;;43.87;17.20;;;;;;;2.73;75.36;101174.00;4993308;28;20030;-77
2023/01/24 06:45:06;;;;;;;43.30;17.27;;;;;;;2.72;75.29;101175.72;5010606;28;20113;-76
2023/01/24 06:47:32;;;;;;;47.10;17.88;;;;;;;2.74;75.47;101175.78;5003929;28;20561;-76
2023/01/24 06:49:57;;;;;;;43.60;16.37;;;;;;;2.75;75.68;101181.88;4998266;28;20438;-76
2023/01/24 06:52:23;;;;;;;41.60;16.05;;;;;;;2.76;75.25;101179.34;4998235;28;20026;-77
2023/01/24 06:54:49;;;;;;;39.73;15.87;;;;;;;2.77;75.34;101178.50;4998341;28;20031;-77
2023/01/24 06:57:14;;;;;;;42.00;16.00;;;;;;;2.78;75.64;101182.00;4997932;28;20034;-77
2023/01/24 06:59:40;;;;;;;38.70;14.88;;;;;;;2.77;75.57;101194.13;5012294;28;20030;-77
2023/01/24 07:02:05;;;;;;;43.13;16.47;;;;;;;2.76;75.72;101192.34;4997215;28;20034;-79
2023/01/24 07:04:31;;;;;;;39.03;15.97;;;;;;;2.76;75.29;101192.34;4996813;28;20026;-78
2023/01/24 07:06:56;;;;;;;42.53;15.63;;;;;;;2.76;75.75;101194.94;4996708;28;20033;-78
2023/01/24 07:09:23;;;;;;;44.37;16.20;;;;;;;2.77;75.21;101198.44;4997342;28;20111;-77
2023/01/24 07:11:52;;;;;;;39.05;15.38;;;;;;;2.78;75.18;101197.63;4997852;28;20038;-86
2023/01/24 07:14:20;;;;;;;38.67;15.48;;;;;;;2.78;75.90;101197.63;4997620;28;20106;-74
2023/01/24 07:16:45;;;;;;;39.05;15.20;;;;;;;2.79;76.00;101200.31;4997787;28;20031;-77
2023/01/24 07:19:15;;;;;;;38.97;15.43;;;;;;;2.78;75.22;101198.53;4996459;28;20049;-75
2023/01/24 07:21:41;;;;;;;38.97;15.65;;;;;;;2.79;75.14;101208.09;4997654;28;20030;-74
2023/01/24 07:24:16;;;;;;;45.53;16.70;;;;;;;2.78;75.06;101206.31;4992517;28;20027;-77
2023/01/24 07:26:42;;;;;;;42.80;16.57;;;;;;;2.80;75.30;101207.28;4997291;28;20379;-77
2023/01/24 07:29:07;;;;;;;43.30;16.30;;;;;;;2.79;75.74;101213.31;4997440;28;20026;-74
2023/01/24 07:31:32;;;;;;;42.13;16.10;;;;;;;2.79;75.75;101213.31;4996161;28;20034;-75
2023/01/24 07:33:58;;;;;;;46.20;16.80;;;;;;;2.79;75.56;101213.31;5003176;28;20037;-77
2023/01/24 07:36:23;;;;;;;45.30;16.60;;;;;;;2.80;75.66;101209.88;4999216;28;20301;-76
2023/01/24 07:38:53;;;;;;;44.93;17.60;;;;;;;2.82;75.13;101215.13;5001268;28;20030;-76
2023/01/24 07:41:18;;;;;;;43.13;16.33;;;;;;;2.84;75.45;101222.19;4998486;28;20030;-74
2023/01/24 07:43:43;;;;;;;45.37;17.63;;;;;;;2.85;75.20;101228.25;5003586;28;20075;-74
2023/01/24 07:46:09;;;;;;;43.50;16.83;;;;;;;2.89;75.98;101232.78;5003894;28;20025;-75
2023/01/24 07:48:35;;;;;;;45.27;18.73;;;;;;;2.91;75.28;101232.84;4996098;28;20030;-75
2023/01/24 07:51:00;;;;;;;48.00;19.33;;;;;;;2.94;75.20;101236.47;4995602;28;20491;-75
2023/01/24 07:53:26;;;;;;;46.73;17.67;;;;;;;2.98;75.23;101247.88;4996862;28;20453;-75
2023/01/24 07:55:51;;;;;;;42.93;17.63;;;;;;;2.99;75.18;101244.47;4997231;28;20348;-76
2023/01/24 07:58:17;;;;;;;49.90;18.60;;;;;;;3.00;75.09;101247.16;4996364;28;20036;-75
2023/01/24 08:00:44;;;;;;;43.53;17.27;;;;;;;3.03;75.59;101241.19;4994582;28;20058;-76
2023/01/24 08:03:09;;;;;;;44.22;17.70;;;;;;;3.07;74.89;101252.59;4996228;28;20109;-75
2023/01/24 08:05:38;;;;;;;46.53;18.58;;;;;;;3.07;75.77;101253.50;4996596;28;20072;-75
2023/01/24 08:08:03;;;;;;;44.50;17.20;;;;;;;3.10;75.23;101245.81;4996521;28;20138;-75
2023/01/24 08:10:29;;;;;;;44.67;17.30;;;;;;;3.15;75.73;101261.66;4996560;28;20035;-75
2023/01/24 08:12:55;;;;;;;46.50;18.53;;;;;;;3.20;75.08;101260.13;4997006;28;20065;-75
2023/01/24 08:15:20;;;;;;;46.22;18.33;;;;;;;3.25;75.06;101273.31;4997292;28;20440;-75
2023/01/24 08:17:46;;;;;;;44.77;17.63;;;;;;;3.29;75.52;101276.13;4997356;28;20034;-75
2023/01/24 08:20:11;;;;;;;46.00;16.48;;;;;;;3.33;75.35;101277.16;4996963;28;20121;-75
2023/01/24 08:22:40;;;;;;;44.73;17.10;;;;;;;3.37;74.92;101268.63;4997487;28;20119;-75
2023/01/24 08:25:07;;;;;;;40.10;16.58;;;;;;;3.44;74.89;101268.06;4990549;28;20035;-75
2023/01/24 08:27:32;;;;;;;40.05;17.15;;;;;;;3.53;74.64;101275.34;4996959;28;20027;-75
2023/01/24 08:29:58;;;;;;;40.50;16.57;;;;;;;3.64;74.71;101272.31;4996692;28;20033;-75
2023/01/24 08:32:23;;;;;;;43.23;18.00;;;;;;;3.72;75.09;101282.19;4997195;28;20041;-75
2023/01/24 08:34:49;;;;;;;42.47;17.97;;;;;;;3.81;74.79;101286.88;4997041;28;20033;-75
2023/01/24 08:37:14;;;;;;;40.13;17.10;;;;;;;3.90;74.75;101281.16;4996725;28;20293;-75
2023/01/24 08:39:40;;;;;;;44.50;17.47;;;;;;;3.98;74.21;101290.19;4997063;28;20030;-75
2023/01/24 08:42:05;;;;;;;40.10;16.30;;;;;;;4.08;74.33;101280.13;4997206;28;20026;-75
2023/01/24 08:44:31;;;;;;;43.73;18.43;;;;;;;4.20;74.19;101280.56;4996647;28;20106;-75
2023/01/24 08:46:56;;;;;;;42.30;18.73;;;;;;;4.31;73.81;101274.06;5004955;28;20398;-75
2023/01/24 08:49:21;;;;;;;43.77;17.83;;;;;;;4.43;73.92;101285.78;4998910;28;20419;-75
2023/01/24 08:51:47;;;;;;;40.20;17.80;;;;;;;4.53;74.09;101277.47;5000684;28;20030;-75
2023/01/24 08:54:13;;;;;;;41.08;18.27;;;;;;;4.64;74.17;101287.41;5000234;28;20058;-75
2023/01/24 08:56:38;;;;;;;39.97;16.50;;;;;;;4.74;73.83;101289.53;5000577;28;20041;-75
2023/01/24 08:59:04;;;;;;;44.73;16.97;;;;;;;4.80;73.42;101294.97;5000237;28;20022;-75
2023/01/24 09:01:31;;;;;;;41.60;18.17;;;;;;;4.87;73.52;101296.09;5015578;28;20463;-76
2023/01/24 09:03:59;;;;;;;35.33;14.35;;;;;;;4.95;73.66;101298.97;4996236;28;20049;-76
2023/01/24 09:06:25;;;;;;;32.45;15.07;;;;;;;5.01;73.45;101300.06;5000496;28;20113;-76
2023/01/24 09:08:56;;;;;;;35.87;16.17;;;;;;;5.07;72.60;101303.75;5000356;28;20505;-75
2023/01/24 09:11:22;;;;;;;42.03;16.92;;;;;;;5.13;73.33;101302.22;4998647;28;20026;-75
2023/01/24 09:13:47;;;;;;;35.97;17.07;;;;;;;5.18;73.10;101305.00;4998574;28;20614;-75
2023/01/24 09:16:13;;;;;;;39.03;17.70;;;;;;;5.22;73.03;101303.41;5000484;28;20288;-75
2023/01/24 09:18:38;;;;;;;37.50;17.27;;;;;;;5.24;72.52;101301.72;4999825;28;20057;-76
2023/01/24 09:21:04;;;;;;;38.83;16.37;;;;;;;5.27;73.15;101312.28;4999869;28;20033;-76
2023/01/24 09:23:30;;;;;;;34.33;15.70;;;;;;;5.32;72.56;101316.81;4997948;28;20265;-75
2023/01/24 09:25:55;;;;;;;35.17;16.00;;;;;;;5.37;72.04;101311.75;4996825;28;20029;-76
2023/01/24 09:28:21;;;;;;;35.03;15.63;;;;;;;5.44;72.85;101307.63;4999298;28;20030;-75
2023/01/24 09:30:48;;;;;;;36.97;16.93;;;;;;;5.56;72.50;101305.44;4999783;28;20066;-76
2023/01/24 09:33:14;;;;;;;35.90;16.35;;;;;;;5.75;72.28;101296.47;4999633;28;20050;-76
2023/01/24 09:35:39;;;;;;;34.28;15.20;;;;;;;5.93;71.97;101283.94;4999771;28;20026;-75
2023/01/24 09:38:05;;;;;;;32.90;14.97;;;;;;;6.12;71.30;101304.63;4999392;28;20049;-76
2023/01/24 09:40:46;;;;;;;31.45;14.30;;;;;;;6.26;70.63;101309.38;4998761;28;20056;-76
2023/01/24 09:43:21;;;;;;;31.20;14.17;;;;;;;6.45;71.18;101305.59;4999421;28;20026;-76
2023/01/24 09:46:28;;;;;;;31.17;14.10;;;;;;;6.60;68.16;101315.63;5005047;28;20024;-76
2023/01/24 09:49:05;;;;;;;34.28;14.70;;;;;;;6.76;69.53;101322.19;4989402;28;20092;-76
2023/01/24 09:51:34;;;;;;;31.23;14.07;;;;;;;6.96;69.59;101319.25;4999469;28;20030;-76
2023/01/24 09:54:02;;;;;;;30.38;13.68;;;;;;;7.04;69.36;101325.56;4999685;28;20058;-76
2023/01/24 09:56:31;;;;;;;27.50;12.13;;;;;;;7.05;69.86;101319.50;4999393;28;20027;-76
2023/01/24 09:59:18;;;;;;;29.65;13.75;;;;;;;6.95;68.30;101328.81;4998133;28;20034;-76
2023/01/24 10:01:46;;;;;;;30.13;13.50;;;;;;;6.91;69.74;101331.34;4998588;28;20030;-76
2023/01/24 10:04:18;;;;;;;25.92;12.52;;;;;;;6.87;69.62;101340.81;4998952;28;20509;-76
2023/01/24 10:07:09;;;;;;;26.45;12.65;;;;;;;6.78;67.84;101336.22;4999360;28;20053;-76
2023/01/24 10:09:44;;;;;;;26.73;12.17;;;;;;;6.79;69.05;101342.34;4998935;28;20054;-75
2023/01/24 10:12:31;;;;;;;27.33;12.43;;;;;;;6.76;69.41;101356.22;4999065;28;20026;-76
2023/01/24 10:15:22;;;;;;;26.27;12.77;;;;;;;6.74;68.86;101355.28;4998985;28;20026;-75
2023/01/24 10:18:23;;;;;;;28.65;13.00;;;;;;;6.72;68.81;101363.09;4999144;28;20117;-76
2023/01/24 10:21:06;;;;;;;26.27;12.30;;;;;;;6.69;68.86;101369.97;4998605;28;20022;-75
2023/01/24 10:23:56;;;;;;;25.23;11.93;;;;;;;6.53;67.74;101366.03;4998230;28;20479;-76
2023/01/24 10:26:27;;;;;;;26.75;11.88;;;;;;;6.50;69.31;101369.41;4988382;28;20018;-75
2023/01/24 10:28:56;;;;;;;25.58;12.20;;;;;;;6.45;70.33;101378.88;4998299;28;20019;-75
2023/01/24 10:31:34;;;;;;;29.30;12.90;;;;;;;6.36;69.62;101375.94;4998471;28;20037;-76
2023/01/24 10:34:12;;;;;;;26.25;12.35;;;;;;;6.34;69.41;101378.53;4997266;28;20109;-76
2023/01/24 10:36:54;;;;;;;27.60;11.90;;;;;;;6.31;68.57;101381.91;4998315;28;20019;-76
2023/01/24 10:39:19;;;;;;;28.33;12.05;;;;;;;6.32;70.28;101375.84;4998495;28;20033;-76
2023/01/24 10:41:44;;;;;;;28.37;13.37;;;;;;;6.30;71.09;101380.16;4998288;28;20026;-76
2023/01/24 10:44:27;;;;;;;26.63;12.05;;;;;;;6.28;69.29;101375.72;4998416;28;20027;-76
2023/01/24 10:46:53;;;;;;;27.57;13.00;;;;;;;6.36;70.54;101363.75;5005928;28;20068;-76
2023/01/24 10:49:31;;;;;;;27.85;12.68;;;;;;;6.31;67.73;101366.22;4996946;28;20125;-76
2023/01/24 10:52:21;;;;;;;26.43;12.60;;;;;;;6.28;68.17;101365.25;5013805;28;20022;-76
2023/01/24 10:54:48;;;;;;;28.50;12.90;;;;;;;6.29;69.56;101360.06;4998166;28;20053;-76
2023/01/24 10:57:48;;;;;;;25.63;10.95;;;;;;;6.15;67.60;101369.22;4998000;28;20030;-76
2023/01/24 11:00:34;;;;;;;24.48;11.65;;;;;;;6.09;68.43;101364.66;4988997;28;20026;-76
2023/01/24 11:03:16;;;;;;;25.38;11.80;;;;;;;6.12;70.34;101361.25;4997917;28;20026;-76
2023/01/24 11:05:52;;;;;;;27.73;11.97;;;;;;;6.15;69.68;101353.53;4997874;28;20081;-76
2023/01/24 11:08:26;;;;;;;26.23;11.90;;;;;;;6.20;67.38;101361.50;4998198;28;20057;-76
2023/01/24 11:10:58;;;;;;;23.13;11.23;;;;;;;6.34;69.66;101348.84;5012962;28;20054;-76
2023/01/24 11:13:33;;;;;;;25.90;12.02;;;;;;;6.47;69.59;101345.78;4997632;28;20030;-75
2023/01/24 11:16:24;;;;;;;25.48;11.65;;;;;;;6.67;69.19;101342.88;4998127;28;20027;-76
2023/01/24 11:19:00;;;;;;;27.47;12.93;;;;;;;6.87;69.45;101344.34;5012420;28;20118;-76
2023/01/24 11:21:28;;;;;;;24.55;12.18;;;;;;;7.01;68.78;101338.59;4997622;28;20072;-75
2023/01/24 11:24:05;;;;;;;24.50;12.25;;;;;;;7.08;66.46;101344.91;4990919;28;20623;-76
2023/01/24 11:26:36;;;;;;;25.05;11.98;;;;;;;7.17;68.65;101346.03;4990567;28;20056;-75
2023/01/24 11:29:14;;;;;;;25.67;12.90;;;;;;;7.23;69.01;101340.06;4997775;28;20029;-75
2023/01/24 11:31:44;;;;;;;24.80;11.83;;;;;;;7.29;67.86;101334.09;4997367;28;20153;-76
2023/01/24 11:34:14;;;;;;;26.27;10.98;;;;;;;7.38;68.16;101322.97;4996336;28;20026;-76
2023/01/24 11:36:59;;;;;;;23.83;12.15;;;;;;;7.57;68.12;101313.84;4997538;28;20072;-75
2023/01/24 11:39:36;;;;;;;25.50;13.20;;;;;;;7.70;67.95;101315.94;4997405;28;20038;-76
2023/01/24 11:42:39;;;;;;;24.88;12.85;;;;;;;7.69;65.93;101324.66;4997860;28;20018;-76
2023/01/24 11:45:20;;;;;;;23.57;11.53;;;;;;;7.60;64.22;101325.31;4997529;28;20044;-75
2023/01/24 11:48:06;;;;;;;23.80;11.60;;;;;;;7.44;66.58;101326.66;5002791;28;20022;-74
2023/01/24 11:50:56;;;;;;;22.25;11.73;;;;;;;7.27;65.76;101320.06;4997773;28;20031;-76
2023/01/24 11:53:43;;;;;;;21.75;11.15;;;;;;;7.24;67.43;101322.63;4997443;28;20022;-76
2023/01/24 11:56:21;;;;;;;22.70;11.02;;;;;;;7.22;67.68;101321.69;4997220;28;20034;-76
2023/01/24 11:58:52;;;;;;;23.73;11.10;;;;;;;7.33;67.65;101315.91;4997407;28;20030;-76
2023/01/24 12:01:59;;;;;;;21.02;10.70;;;;;;;7.67;67.51;101317.59;4996129;28;20027;-76
2023/01/24 12:04:33;;;;;;;22.88;10.55;;;;;;;8.03;66.63;101301.00;5014639;28;20068;-76